Time;durP1;ratioP1;P1;durP2;ratioP2;P2;SDS_P1;SDS_P2;PMS_P1;PMS_P2;Temp;Humidity;BMP_temperature;BMP_pressure;BME280_temperature;BME280_humidity;BME280_pressure;Samples;Min_cycle;Max_cycle;Signal;HPM_P1;HPM_P2
2022/04/23 00:00:46;;;;;;;20.23;16.02;;;;;;;9.03;76.21;100770.13;1741752;82;21181;-58
2022/04/23 00:03:54;;;;;;;20.08;16.07;;;;;;;9.02;76.22;100765.70;1741563;81;21374;-57
2022/04/23 00:07:02;;;;;;;20.02;15.58;;;;;;;9.04;76.21;100761.78;1722871;82;21343;-59
2022/04/23 00:10:09;;;;;;;20.95;17.30;;;;;;;9.06;76.25;100764.36;1741535;82;21193;-58
2022/04/23 00:13:17;;;;;;;24.77;16.48;;;;;;;9.06;76.30;100762.49;1742246;81;21216;-58
2022/04/23 00:16:23;;;;;;;20.25;15.68;;;;;;;9.06;76.35;100769.31;1741980;82;21239;-59
2022/04/23 00:19:29;;;;;;;21.02;16.55;;;;;;;9.04;76.34;100776.80;1742104;81;21201;-58
2022/04/23 00:22:34;;;;;;;22.70;15.53;;;;;;;9.02;76.30;100773.89;1742157;81;21189;-58
2022/04/23 00:25:45;;;;;;;19.17;15.50;;;;;;;8.97;76.41;100768.87;1743114;80;21228;-58
2022/04/23 00:28:51;;;;;;;19.07;15.65;;;;;;;8.96;76.48;100772.63;1742463;81;21284;-58
2022/04/23 00:31:57;;;;;;;18.27;14.47;;;;;;;8.94;76.47;100772.44;1722397;82;21196;-58
2022/04/23 00:35:06;;;;;;;18.23;15.00;;;;;;;8.93;76.45;100767.97;1741186;82;21264;-57
2022/04/23 00:38:13;;;;;;;19.77;14.63;;;;;;;8.93;76.47;100778.40;1724590;82;21200;-57
2022/04/23 00:44:40;;;;;;;17.48;13.83;;;;;;;8.96;76.26;100769.89;1742608;82;21192;-58
2022/04/23 00:47:47;;;;;;;19.48;14.58;;;;;;;8.96;76.29;100770.39;1741980;81;21224;-57
2022/04/23 00:50:57;;;;;;;17.45;14.13;;;;;;;8.96;76.32;100759.47;1741487;82;21205;-58
2022/04/23 00:54:10;;;;;;;17.82;14.33;;;;;;;8.96;76.32;100748.55;1742199;81;21193;-58
2022/04/23 00:57:16;;;;;;;20.27;15.20;;;;;;;8.93;76.29;100755.20;1742318;81;21212;-59
2022/04/23 01:00:15;;;;;;;16.95;14.35;;;;;;;8.94;76.39;100747.88;1742334;82;21173;-59
2022/04/23 01:03:22;;;;;;;17.45;15.15;;;;;;;8.96;76.50;100745.32;1724263;82;21340;-58
2022/04/23 01:06:30;;;;;;;17.95;15.08;;;;;;;9.00;76.50;100743.14;1741618;82;21177;-57
2022/04/23 01:09:37;;;;;;;17.10;14.25;;;;;;;9.05;76.58;100735.34;1740531;82;21197;-57
2022/04/23 01:12:45;;;;;;;17.95;14.30;;;;;;;9.10;76.59;100738.46;1742470;81;21189;-58
2022/04/23 01:16:07;;;;;;;17.60;14.47;;;;;;;9.16;76.34;100739.19;1741756;82;21221;-57
2022/04/23 01:19:14;;;;;;;20.32;14.60;;;;;;;9.19;76.15;100746.20;1742271;81;21256;-58
2022/04/23 01:22:19;;;;;;;16.95;14.40;;;;;;;9.23;76.07;100746.25;1742455;81;21244;-58
2022/04/23 01:25:23;;;;;;;19.48;14.60;;;;;;;9.26;75.98;100750.86;1742460;82;21173;-57
2022/04/23 01:28:31;;;;;;;16.80;13.53;;;;;;;9.30;75.87;100744.08;1713668;83;21236;-58
2022/04/23 01:31:37;;;;;;;16.87;13.75;;;;;;;9.34;75.69;100744.63;1713161;83;21179;-58
2022/04/23 01:34:43;;;;;;;17.85;13.30;;;;;;;9.35;75.50;100733.54;1713480;82;21194;-58
2022/04/23 01:37:51;;;;;;;16.12;13.13;;;;;;;9.37;75.38;100736.95;1714900;82;21224;-57
2022/04/23 01:40:58;;;;;;;20.17;13.15;;;;;;;9.36;75.29;100742.06;1713044;82;21185;-58
2022/04/23 01:44:04;;;;;;;16.20;13.10;;;;;;;9.38;75.12;100746.01;1713125;83;21209;-57
2022/04/23 01:47:10;;;;;;;15.95;13.62;;;;;;;9.37;74.97;100736.11;1713621;82;21166;-58
2022/04/23 01:50:17;;;;;;;16.93;13.50;;;;;;;9.39;74.67;100736.81;1713351;82;21185;-58
2022/04/23 01:53:25;;;;;;;19.48;14.20;;;;;;;9.36;74.55;100735.23;1701057;83;21264;-58
2022/04/23 01:56:30;;;;;;;17.82;14.07;;;;;;;9.38;74.65;100729.12;1710781;83;21252;-58
2022/04/23 01:59:36;;;;;;;17.75;14.13;;;;;;;9.41;74.72;100732.02;1710986;83;21225;-58
2022/04/23 02:02:42;;;;;;;26.15;13.98;;;;;;;9.44;74.64;100731.20;1711256;82;21237;-58
2022/04/23 02:05:49;;;;;;;17.62;14.23;;;;;;;9.46;74.56;100740.11;1712758;83;21190;-58
2022/04/23 02:08:57;;;;;;;21.33;14.68;;;;;;;9.51;74.53;100737.75;1712674;82;21197;-59
2022/04/23 02:12:04;;;;;;;17.67;14.23;;;;;;;9.49;74.16;100727.48;1710394;83;21241;-57
2022/04/23 02:15:10;;;;;;;19.92;15.50;;;;;;;9.46;74.10;100730.55;1713956;82;21181;-58
2022/04/23 02:18:16;;;;;;;20.12;15.10;;;;;;;9.43;74.19;100729.50;1711779;83;21213;-59
2022/04/23 02:21:22;;;;;;;18.57;14.55;;;;;;;9.42;74.14;100727.77;1710879;83;21304;-59
2022/04/23 02:24:30;;;;;;;21.33;15.40;;;;;;;9.40;74.11;100727.09;1699738;83;21205;-58
2022/04/23 02:27:49;;;;;;;20.30;16.02;;;;;;;9.32;73.97;100722.06;1723005;81;21724;-59
2022/04/23 02:30:54;;;;;;;19.32;14.55;;;;;;;9.27;74.25;100729.38;1726984;82;21201;-59
2022/04/23 02:34:03;;;;;;;20.00;15.25;;;;;;;9.27;74.49;100718.45;1741954;81;21220;-59
2022/04/23 02:37:09;;;;;;;19.67;15.03;;;;;;;9.27;74.56;100718.45;1723663;81;21271;-58
2022/04/23 02:40:17;;;;;;;17.98;15.35;;;;;;;9.23;74.82;100718.94;1741041;82;21236;-59
2022/04/23 02:43:23;;;;;;;21.95;16.48;;;;;;;9.22;74.84;100717.20;1742332;81;21248;-58
2022/04/23 02:46:32;;;;;;;19.80;16.27;;;;;;;9.20;74.84;100721.98;1742485;82;21256;-57
2022/04/23 02:49:39;;;;;;;22.13;16.07;;;;;;;9.18;74.85;100733.03;1741039;82;21701;-59
2022/04/23 02:52:51;;;;;;;22.75;16.70;;;;;;;9.20;74.92;100726.91;1742314;81;21390;-58
2022/04/23 02:55:57;;;;;;;20.92;16.97;;;;;;;9.22;75.04;100714.47;1740053;82;21505;-57
2022/04/23 02:59:06;;;;;;;20.92;15.83;;;;;;;9.26;75.09;100720.81;1742477;81;21213;-58
2022/04/23 03:02:13;;;;;;;22.15;16.97;;;;;;;9.29;75.01;100715.06;1741011;81;21196;-58
2022/04/23 03:05:20;;;;;;;20.10;16.60;;;;;;;9.33;75.14;100706.01;1742222;82;21185;-58
2022/04/23 03:08:27;;;;;;;26.87;16.40;;;;;;;9.38;75.18;100709.98;1722162;82;21272;-58
2022/04/23 03:11:34;;;;;;;20.85;15.83;;;;;;;9.43;75.09;100698.58;1742463;82;21185;-57
2022/04/23 03:14:43;;;;;;;21.20;16.75;;;;;;;9.45;74.77;100700.64;1741826;82;21244;-58
2022/04/23 03:17:49;;;;;;;21.93;16.87;;;;;;;9.43;74.61;100693.98;1741960;81;21268;-58
2022/04/23 03:20:58;;;;;;;21.40;16.62;;;;;;;9.44;74.71;100707.97;1723395;82;21232;-58
2022/04/23 03:24:06;;;;;;;20.55;16.93;;;;;;;9.43;74.46;100708.14;1742541;81;21367;-57
2022/04/23 03:27:14;;;;;;;23.83;18.25;;;;;;;9.40;74.48;100712.06;1742590;81;21347;-57
2022/04/23 03:30:22;;;;;;;24.70;18.60;;;;;;;9.39;74.64;100696.67;1737682;82;21178;-58
2022/04/23 03:33:29;;;;;;;26.07;18.85;;;;;;;9.41;74.79;100689.17;1737735;81;21260;-58
2022/04/23 03:36:39;;;;;;;27.87;20.55;;;;;;;9.42;74.71;100683.21;1737318;82;21241;-56
2022/04/23 03:39:45;;;;;;;26.60;19.90;;;;;;;9.41;74.78;100676.88;1736758;82;21230;-58
2022/04/23 03:42:50;;;;;;;25.62;18.12;;;;;;;9.45;74.96;100683.72;1737628;81;21541;-57
2022/04/23 03:45:57;;;;;;;24.67;18.27;;;;;;;9.56;75.13;100676.61;1737569;82;21182;-58
2022/04/23 03:49:07;;;;;;;26.37;18.15;;;;;;;9.61;74.82;100683.81;1719672;82;21281;-58
2022/04/23 03:52:14;;;;;;;25.45;18.85;;;;;;;9.62;74.90;100674.63;1737652;81;21198;-58
2022/04/23 03:55:22;;;;;;;28.07;19.87;;;;;;;9.70;75.11;100682.00;1737611;82;21711;-59
2022/04/23 03:58:29;;;;;;;30.40;21.40;;;;;;;9.82;74.97;100681.55;1737568;81;21217;-57
2022/04/23 04:01:37;;;;;;;25.32;19.67;;;;;;;9.91;74.79;100675.08;1737822;82;21234;-58
2022/04/23 04:04:45;;;;;;;25.40;19.07;;;;;;;9.98;74.35;100676.16;1737631;82;21348;-58
2022/04/23 04:07:53;;;;;;;28.50;20.40;;;;;;;10.02;74.35;100681.63;1736947;81;21206;-58
2022/04/23 04:10:58;;;;;;;28.23;19.27;;;;;;;10.07;74.12;100679.75;1735718;82;21601;-59
2022/04/23 04:14:06;;;;;;;28.75;20.23;;;;;;;10.04;73.88;100679.59;1735186;81;21209;-59
2022/04/23 04:17:17;;;;;;;26.95;19.73;;;;;;;10.00;73.79;100682.33;1737606;81;21238;-59
2022/04/23 04:20:24;;;;;;;52.65;37.15;;;;;;;9.99;73.84;100683.33;1720763;82;21218;-59
2022/04/23 04:23:32;;;;;;;33.45;26.87;;;;;;;9.94;73.96;100670.65;1736213;81;21253;-59
2022/04/23 04:26:38;;;;;;;28.83;20.68;;;;;;;9.97;74.26;100675.78;1737985;82;21320;-58
2022/04/23 04:29:46;;;;;;;29.12;21.45;;;;;;;10.00;74.25;100700.10;1739063;81;21354;-58
2022/04/23 04:32:52;;;;;;;29.05;20.97;;;;;;;10.03;74.02;100692.06;1742340;81;21262;-57
2022/04/23 04:35:59;;;;;;;28.52;20.10;;;;;;;10.06;74.08;100698.57;1742448;82;21264;-58
2022/04/23 04:39:04;;;;;;;35.05;21.27;;;;;;;10.10;74.25;100706.30;1742347;81;21268;-58
2022/04/23 04:42:14;;;;;;;28.23;21.48;;;;;;;10.11;74.33;100688.89;1740962;81;21833;-58
2022/04/23 04:45:21;;;;;;;31.30;22.20;;;;;;;10.09;74.11;100696.40;1740682;82;21390;-58
2022/04/23 04:48:30;;;;;;;26.57;20.70;;;;;;;10.03;74.34;100695.67;1740656;81;21221;-58
2022/04/23 04:51:37;;;;;;;32.78;23.38;;;;;;;10.01;74.61;100699.06;1741798;82;21383;-58
2022/04/23 04:54:43;;;;;;;30.43;22.05;;;;;;;9.98;74.89;100702.13;1740556;82;21232;-58
2022/04/23 04:57:49;;;;;;;31.25;22.20;;;;;;;9.94;75.17;100698.53;1740437;81;21244;-58
2022/04/23 05:00:59;;;;;;;31.33;21.00;;;;;;;9.93;75.53;100692.19;1739241;82;21214;-57
2022/04/23 05:04:06;;;;;;;29.35;21.05;;;;;;;9.95;75.72;100691.53;1737700;81;21196;-58
2022/04/23 05:07:14;;;;;;;36.90;21.25;;;;;;;9.99;75.76;100702.47;1741453;81;21820;-58
2022/04/23 05:10:20;;;;;;;24.92;20.10;;;;;;;10.05;75.81;100695.50;1742003;82;21294;-59
2022/04/23 05:13:27;;;;;;;26.55;20.08;;;;;;;10.17;75.88;100701.91;1742692;81;21255;-57
2022/04/23 05:16:33;;;;;;;30.23;21.57;;;;;;;10.25;75.63;100695.09;1742489;82;21383;-57
2022/04/23 05:19:40;;;;;;;30.95;21.12;;;;;;;10.30;75.26;100694.09;1742003;82;21181;-58
2022/04/23 05:22:46;;;;;;;26.25;19.65;;;;;;;10.31;75.21;100690.31;1742056;81;21231;-57
2022/04/23 05:25:53;;;;;;;26.52;19.57;;;;;;;10.34;74.83;100691.34;1756748;81;21207;-57
2022/04/23 05:28:59;;;;;;;25.40;19.15;;;;;;;10.37;74.70;100696.48;1762685;81;21209;-58
2022/04/23 05:32:07;;;;;;;25.80;19.57;;;;;;;10.40;74.49;100700.25;1764969;81;21228;-57
2022/04/23 05:35:13;;;;;;;26.57;19.67;;;;;;;10.40;74.46;100711.73;1764202;80;21202;-58
2022/04/23 05:38:20;;;;;;;23.25;18.55;;;;;;;10.40;74.67;100710.36;1764338;80;21539;-57
2022/04/23 05:41:27;;;;;;;23.07;18.15;;;;;;;10.46;74.98;100711.89;1764177;81;21229;-57
2022/04/23 05:44:36;;;;;;;29.65;18.00;;;;;;;10.55;75.12;100702.70;1764024;81;21240;-58
2022/04/23 05:47:41;;;;;;;20.72;15.88;;;;;;;10.63;74.67;100709.20;1764368;81;21225;-57
2022/04/23 05:50:49;;;;;;;24.20;15.35;;;;;;;10.73;74.41;100698.45;1747376;81;21687;-58
2022/04/23 05:53:54;;;;;;;24.95;16.50;;;;;;;10.85;73.89;100689.38;1764529;80;21761;-58
2022/04/23 05:57:01;;;;;;;21.73;15.23;;;;;;;10.98;73.48;100691.09;1748757;81;21182;-58
2022/04/23 06:00:08;;;;;;;20.43;15.08;;;;;;;11.12;73.12;100700.86;1765210;80;21150;-58
2022/04/23 06:03:17;;;;;;;19.37;15.70;;;;;;;11.24;72.58;100694.53;1765092;81;21197;-59
2022/04/23 06:06:24;;;;;;;21.45;15.88;;;;;;;11.28;72.18;100702.23;1765093;80;21185;-59
2022/04/23 06:09:33;;;;;;;20.40;15.70;;;;;;;11.34;72.12;100695.19;1765195;81;21253;-58
2022/04/23 06:12:41;;;;;;;22.95;14.80;;;;;;;11.42;72.01;100686.95;1765256;81;21383;-59
2022/04/23 06:15:49;;;;;;;21.68;15.08;;;;;;;11.56;71.59;100683.52;1765081;81;21190;-60
2022/04/23 06:18:56;;;;;;;22.82;16.52;;;;;;;11.68;71.12;100687.63;1765127;81;21355;-59
2022/04/23 06:22:04;;;;;;;22.67;15.08;;;;;;;11.82;71.22;100678.67;1745380;81;21238;-58
2022/04/23 06:25:13;;;;;;;23.45;14.63;;;;;;;11.96;71.18;100678.79;1741194;81;21191;-59
2022/04/23 06:28:20;;;;;;;21.90;15.43;;;;;;;12.11;71.13;100676.16;1740920;81;21206;-59
2022/04/23 06:31:30;;;;;;;19.70;14.58;;;;;;;12.22;70.96;100667.53;1740453;80;21174;-59
2022/04/23 06:34:37;;;;;;;21.25;14.95;;;;;;;12.41;71.07;100657.47;1716704;82;21178;-59
2022/04/23 06:37:48;;;;;;;26.33;15.80;;;;;;;12.62;70.66;100656.82;1739258;81;21245;-58
2022/04/23 06:40:56;;;;;;;;;;;;;;;12.72;69.54;100655.53;1745895;81;21260;-59
2022/04/23 06:44:03;;;;;;;23.10;14.85;;;;;;;12.67;69.36;100649.72;1742000;81;20267;-58
2022/04/23 06:47:13;;;;;;;30.48;15.55;;;;;;;12.63;69.00;100666.25;1753152;81;21228;-58
2022/04/23 06:50:19;;;;;;;21.07;15.55;;;;;;;12.63;69.03;100671.73;1741801;81;21228;-58
2022/04/23 06:53:28;;;;;;;22.45;15.08;;;;;;;12.66;69.19;100667.77;1754139;81;21217;-59
2022/04/23 06:56:34;;;;;;;22.05;14.90;;;;;;;12.78;69.59;100660.83;1751262;81;21216;-59
2022/04/23 06:59:41;;;;;;;19.92;13.95;;;;;;;12.91;69.33;100650.91;1745955;81;21269;-59
2022/04/23 07:02:47;;;;;;;20.68;13.68;;;;;;;12.97;68.73;100654.30;1746270;81;21356;-59
2022/04/23 07:05:55;;;;;;;20.60;14.45;;;;;;;13.13;68.77;100665.69;1745637;81;21324;-59
2022/04/23 07:09:03;;;;;;;20.00;14.18;;;;;;;13.29;66.89;100658.16;1746761;81;21285;-58
2022/04/23 07:12:15;;;;;;;34.03;21.10;;;;;;;13.49;67.19;100656.58;1747580;81;21668;-59
2022/04/23 07:15:21;;;;;;;36.23;22.87;;;;;;;13.72;64.95;100652.89;1735142;82;21185;-59
2022/04/23 07:18:29;;;;;;;35.23;24.57;;;;;;;13.84;64.73;100658.27;1734348;82;21229;-60
2022/04/23 07:21:36;;;;;;;31.68;21.05;;;;;;;14.07;64.24;100653.48;1733790;82;21793;-58
2022/04/23 07:24:43;;;;;;;30.92;20.80;;;;;;;14.22;62.10;100646.91;1736542;82;21201;-58
2022/04/23 07:27:52;;;;;;;27.93;19.82;;;;;;;14.35;61.78;100651.79;1737695;82;21229;-59
2022/04/23 07:31:00;;;;;;;27.95;18.45;;;;;;;14.43;60.94;100651.13;1753243;81;21208;-58
2022/04/23 07:37:33;;;;;;;28.52;16.25;;;;;;;14.30;60.15;100651.52;1759669;80;21198;-59
2022/04/23 07:40:42;;;;;;;24.40;16.80;;;;;;;14.30;60.35;100651.52;1761053;80;21221;-58
2022/04/23 07:43:48;;;;;;;25.45;15.40;;;;;;;14.30;60.14;100642.70;1770281;80;21221;-59
2022/04/23 07:46:55;;;;;;;26.60;15.98;;;;;;;14.27;60.35;100636.75;1752853;81;21189;-59
2022/04/23 07:50:02;;;;;;;21.33;14.98;;;;;;;14.34;60.97;100630.78;1770938;81;21193;-59
2022/04/23 07:53:09;;;;;;;18.87;14.07;;;;;;;14.43;60.96;100635.98;1770846;80;21584;-59
2022/04/23 07:56:10;;;;;;;12.90;11.05;;;;;;;14.56;60.86;100628.38;1761956;80;21174;-59
2022/04/23 07:59:16;;;;;;;14.53;10.08;;;;;;;14.74;59.12;100626.05;1771042;80;21201;-58
2022/04/23 08:02:22;;;;;;;11.73;9.70;;;;;;;14.83;57.46;100617.96;1759222;80;21248;-59
2022/04/23 08:05:30;;;;;;;12.70;9.10;;;;;;;14.96;55.98;100616.71;1731499;82;21328;-60
2022/04/23 08:08:40;;;;;;;11.38;9.25;;;;;;;15.11;55.81;100607.81;1732636;82;21907;-58
2022/04/23 08:11:47;;;;;;;12.07;9.63;;;;;;;15.35;56.06;100603.23;1732955;82;21252;-58
2022/04/23 08:14:53;;;;;;;11.65;8.63;;;;;;;15.50;54.50;100598.51;1721500;82;21184;-59
2022/04/23 08:18:02;;;;;;;12.37;9.28;;;;;;;15.42;54.19;100594.53;1740878;81;21717;-58
2022/04/23 08:21:03;;;;;;;14.53;10.15;;;;;;;15.45;55.03;100598.25;1733202;81;21209;-58
2022/04/23 08:24:10;;;;;;;12.88;9.63;;;;;;;15.60;54.47;100597.59;1765452;80;21242;-59
2022/04/23 08:27:17;;;;;;;11.57;9.60;;;;;;;15.72;54.57;100586.33;1765835;81;21457;-59
2022/04/23 08:30:37;;;;;;;12.58;9.63;;;;;;;15.78;53.07;100586.02;1765844;81;21250;-58
2022/04/23 08:34:00;;;;;;;13.78;8.80;;;;;;;15.96;53.91;100573.91;1759117;79;21996;-59
2022/04/23 08:37:07;;;;;;;15.08;9.20;;;;;;;16.25;53.33;100571.67;1756302;81;21356;-59
2022/04/23 08:40:15;;;;;;;11.35;8.60;;;;;;;16.53;53.06;100570.20;1756525;80;21560;-61
2022/04/23 08:43:23;;;;;;;12.40;9.38;;;;;;;16.75;52.03;100557.03;1756956;81;21300;-60
2022/04/23 08:46:32;;;;;;;11.60;8.40;;;;;;;16.78;50.96;100555.22;1752435;81;21260;-58
2022/04/23 08:49:39;;;;;;;9.95;7.42;;;;;;;16.78;50.92;100548.31;1751662;82;21252;-58
2022/04/23 08:52:48;;;;;;;8.70;7.15;;;;;;;16.86;50.41;100542.05;1753120;81;21213;-58
2022/04/23 08:55:55;;;;;;;10.38;7.58;;;;;;;16.89;49.88;100531.94;1757789;81;21170;-59
2022/04/23 08:59:00;;;;;;;10.10;7.72;;;;;;;16.83;49.46;100538.85;1767438;80;21767;-59
2022/04/23 09:02:07;;;;;;;11.12;7.83;;;;;;;16.72;49.01;100542.25;1758037;81;21194;-58
2022/04/23 09:05:19;;;;;;;12.93;9.25;;;;;;;16.66;49.65;100540.34;1758519;79;21997;-59
2022/04/23 09:08:29;;;;;;;13.53;9.55;;;;;;;16.76;48.75;100533.87;1740001;81;21252;-59
2022/04/23 09:11:41;;;;;;;16.37;9.38;;;;;;;16.87;47.98;100532.67;1733692;83;21190;-59
2022/04/23 09:14:48;;;;;;;11.75;7.58;;;;;;;16.80;47.23;100529.08;1732405;83;21762;-59
2022/04/23 09:24:25;;;;;;;9.70;7.25;;;;;;;16.68;47.44;100516.94;1726884;83;21266;-59
2022/04/23 09:27:37;;;;;;;9.65;7.10;;;;;;;16.61;47.34;100528.53;1756260;81;21265;-60
2022/04/23 09:30:46;;;;;;;10.45;6.58;;;;;;;16.42;48.42;100530.19;1755801;81;21324;-60
2022/04/23 09:33:55;;;;;;;9.55;5.85;;;;;;;16.39;48.20;100527.81;1737353;81;21248;-59
2022/04/23 09:37:05;;;;;;;7.37;5.92;;;;;;;16.33;47.13;100526.45;1763981;81;21710;-59
2022/04/23 09:40:27;;;;;;;13.50;8.63;;;;;;;16.34;46.37;100517.09;1767424;81;21932;-60
2022/04/23 09:43:35;;;;;;;6.67;5.45;;;;;;;16.32;47.30;100524.20;1766386;80;21193;-59
2022/04/23 09:46:54;;;;;;;6.65;4.20;;;;;;;16.44;47.68;100526.69;1741533;82;21668;-60
2022/04/23 09:50:03;;;;;;;9.75;4.70;;;;;;;16.64;47.49;100538.31;1740047;81;21248;-59
2022/04/23 09:53:28;;;;;;;6.17;5.12;;;;;;;16.80;45.33;100528.22;1754649;81;21811;-60
2022/04/23 09:56:36;;;;;;;7.78;4.58;;;;;;;16.66;44.64;100513.55;1764015;79;21959;-59
2022/04/23 09:59:44;;;;;;;6.35;4.58;;;;;;;16.59;45.20;100508.54;1766146;81;21270;-59
2022/04/23 10:02:51;;;;;;;6.25;4.75;;;;;;;16.56;45.07;100510.34;1759974;80;21544;-59
2022/04/23 10:05:58;;;;;;;6.17;4.47;;;;;;;16.70;45.19;100512.61;1760010;81;21199;-60
2022/04/23 10:09:05;;;;;;;12.30;5.50;;;;;;;16.86;45.25;100503.86;1760285;81;21767;-60
2022/04/23 10:12:14;;;;;;;9.70;5.95;;;;;;;16.88;45.04;100490.16;1760732;80;21191;-61
2022/04/23 10:15:20;;;;;;;7.53;5.08;;;;;;;16.88;45.56;100498.97;1760891;81;21195;-60
2022/04/23 10:18:26;;;;;;;5.80;5.20;;;;;;;16.85;45.85;100493.34;1760510;81;21744;-61
2022/04/23 10:21:53;;;;;;;7.17;5.55;;;;;;;16.83;46.11;100497.38;1760442;81;21195;-59
2022/04/23 10:25:32;;;;;;;5.62;5.03;;;;;;;16.86;46.87;100505.23;1760136;81;21202;-59
2022/04/23 10:28:39;;;;;;;7.28;5.25;;;;;;;16.83;46.39;100507.05;1760585;81;21420;-60
2022/04/23 10:31:47;;;;;;;6.87;5.37;;;;;;;16.88;47.51;100516.95;1759929;80;21807;-59
2022/04/23 10:34:53;;;;;;;6.83;5.47;;;;;;;16.99;47.19;100508.87;1766109;81;21191;-59
2022/04/23 10:38:02;;;;;;;6.08;5.35;;;;;;;17.01;47.42;100515.56;1775147;78;21226;-60
2022/04/23 10:41:10;;;;;;;6.55;5.17;;;;;;;16.91;46.50;100509.61;1775458;79;21328;-60
2022/04/23 10:44:15;;;;;;;7.53;5.37;;;;;;;16.71;46.81;100506.86;1697451;83;21235;-59
2022/04/23 10:47:39;;;;;;;9.13;6.05;;;;;;;16.53;46.64;100502.48;1696849;82;21801;-59
2022/04/23 10:50:44;;;;;;;6.35;4.58;;;;;;;16.43;47.65;100510.30;1700036;83;21213;-60
2022/04/23 10:53:56;;;;;;;8.03;5.10;;;;;;;16.47;47.71;100506.62;1718485;82;21272;-59
2022/04/23 10:57:02;;;;;;;7.65;5.85;;;;;;;16.46;47.16;100503.55;1714271;83;21264;-60
2022/04/23 11:00:18;;;;;;;6.80;5.40;;;;;;;16.29;47.60;100503.91;1732822;80;21350;-60
2022/04/23 11:03:25;;;;;;;6.58;5.45;;;;;;;16.23;47.74;100505.27;1780363;80;21228;-60
2022/04/23 11:13:06;;;;;;;8.00;6.42;;;;;;;15.76;48.60;100500.66;1780812;80;21271;-60
2022/04/23 11:16:22;;;;;;;7.33;5.87;;;;;;;15.70;49.45;100489.06;1780502;80;21330;-59
2022/04/23 11:19:26;;;;;;;10.95;5.85;;;;;;;15.85;49.83;100484.25;1782358;78;21244;-60
2022/04/23 11:22:32;;;;;;;8.53;5.80;;;;;;;15.83;49.00;100496.02;1781422;80;21741;-60
2022/04/23 11:25:40;;;;;;;7.50;5.70;;;;;;;15.92;49.15;100495.32;1780834;80;21181;-60
2022/04/23 11:28:48;;;;;;;10.05;6.72;;;;;;;15.96;48.78;100486.93;1780389;80;21229;-61
2022/04/23 11:32:01;;;;;;;8.93;6.53;;;;;;;15.96;49.31;100488.31;1780031;80;21235;-59
2022/04/23 11:35:11;;;;;;;6.87;5.90;;;;;;;15.91;49.34;100480.66;1780900;80;21313;-60
2022/04/23 11:38:29;;;;;;;10.70;5.97;;;;;;;15.83;48.97;100479.46;1778737;79;21232;-59
2022/04/23 11:41:44;;;;;;;6.72;6.03;;;;;;;15.79;49.43;100476.77;1781069;80;21285;-60
2022/04/23 11:44:58;;;;;;;8.30;6.00;;;;;;;15.82;50.26;100464.48;1781615;80;21248;-59
2022/04/23 11:48:05;;;;;;;13.68;6.10;;;;;;;15.92;49.84;100467.72;1769510;80;21260;-60
2022/04/23 11:51:14;;;;;;;7.80;5.45;;;;;;;16.01;50.17;100453.51;1780543;80;21212;-57
2022/04/23 11:54:21;;;;;;;8.65;5.58;;;;;;;16.18;50.25;100439.61;1780952;80;21283;-58
2022/04/23 11:57:28;;;;;;;9.93;6.17;;;;;;;16.27;49.86;100452.67;1781005;80;21236;-59
2022/04/23 12:00:35;;;;;;;6.42;4.92;;;;;;;16.37;49.62;100438.78;1781094;80;21208;-59
2022/04/23 12:03:42;;;;;;;6.80;5.17;;;;;;;16.43;49.38;100440.69;1780678;80;21267;-58
2022/04/23 12:06:56;;;;;;;8.63;5.25;;;;;;;16.37;48.53;100434.64;1779683;80;21597;-59
2022/04/23 12:10:07;;;;;;;8.53;4.95;;;;;;;16.21;48.26;100425.89;1779776;80;21373;-59
2022/04/23 12:13:12;;;;;;;6.35;4.80;;;;;;;16.03;48.76;100414.08;1778825;80;21200;-59
2022/04/23 12:16:19;;;;;;;6.20;4.83;;;;;;;15.87;48.98;100419.17;1778805;80;21200;-58
2022/04/23 12:19:28;;;;;;;7.53;4.85;;;;;;;15.73;49.05;100419.64;1776736;80;21263;-59
2022/04/23 12:22:37;;;;;;;5.65;4.97;;;;;;;15.61;49.00;100413.04;1760734;80;21251;-59
2022/04/23 12:25:44;;;;;;;8.75;5.12;;;;;;;15.46;49.96;100417.02;1778879;80;21173;-60
2022/04/23 12:42:28;;;;;;;7.00;5.95;;;;;;;14.77;56.46;100411.55;1770004;80;21240;-59
2022/04/23 12:45:34;;;;;;;9.70;5.58;;;;;;;14.56;56.67;100409.36;1769784;81;21686;-59
2022/04/23 12:48:59;;;;;;;9.28;6.60;;;;;;;14.44;56.86;100399.95;1768601;80;21185;-59
2022/04/23 12:52:06;;;;;;;6.62;5.75;;;;;;;14.34;57.63;100403.58;1754594;80;21212;-59
2022/04/23 12:55:38;;;;;;;10.45;6.37;;;;;;;14.29;58.82;100395.05;1755988;80;21181;-59
2022/04/23 12:58:43;;;;;;;9.95;7.03;;;;;;;14.23;59.54;100402.19;1758503;80;21225;-58
2022/04/23 13:01:50;;;;;;;7.20;5.75;;;;;;;14.17;59.65;100411.77;1756612;80;21177;-58
2022/04/23 13:04:56;;;;;;;7.75;6.10;;;;;;;14.10;60.02;100405.34;1737445;80;21209;-58
2022/04/23 13:11:27;;;;;;;8.65;6.20;;;;;;;13.97;60.44;100401.11;1739700;82;21200;-59
2022/04/23 13:14:33;;;;;;;5.90;4.83;;;;;;;13.91;60.18;100392.23;1739935;82;21844;-59
2022/04/23 13:17:41;;;;;;;6.83;4.80;;;;;;;13.86;58.99;100394.76;1740026;82;21715;-60
2022/04/23 13:20:47;;;;;;;6.90;4.65;;;;;;;13.78;57.97;100386.63;1740663;82;21710;-59
2022/04/23 13:23:57;;;;;;;6.33;4.67;;;;;;;13.72;57.13;100394.27;1752627;80;21173;-59
2022/04/23 13:27:03;;;;;;;5.55;4.12;;;;;;;13.64;56.18;100393.05;1769164;81;21185;-59
2022/04/23 13:30:11;;;;;;;9.20;5.10;;;;;;;13.57;56.22;100386.61;1768944;81;21256;-59
2022/04/23 13:33:17;;;;;;;11.20;6.97;;;;;;;13.51;56.40;100405.59;1763512;80;21234;-59
2022/04/23 13:36:24;;;;;;;12.73;8.35;;;;;;;13.42;56.72;100416.89;1757089;81;21723;-59
2022/04/23 13:39:30;;;;;;;10.03;6.35;;;;;;;13.35;57.41;100427.81;1756089;81;21220;-59
2022/04/23 13:42:38;;;;;;;10.65;7.25;;;;;;;13.31;58.06;100421.52;1760767;80;21203;-59
2022/04/23 13:45:44;;;;;;;8.93;6.55;;;;;;;13.30;58.93;100411.03;1777593;79;21750;-58
2022/04/23 13:48:53;;;;;;;8.23;5.72;;;;;;;13.32;59.84;100406.20;1723173;82;21245;-59
2022/04/23 13:52:00;;;;;;;8.08;5.95;;;;;;;13.30;60.40;100395.08;1710308;83;21229;-59
2022/04/23 13:55:09;;;;;;;8.83;5.95;;;;;;;13.28;60.92;100387.03;1774314;79;21193;-60
2022/04/23 13:58:18;;;;;;;7.37;5.83;;;;;;;13.27;61.38;100376.22;1771202;81;21189;-59
2022/04/23 14:01:24;;;;;;;7.58;5.30;;;;;;;13.27;61.97;100359.73;1771830;81;21714;-59
2022/04/23 14:11:19;;;;;;;10.20;5.67;;;;;;;13.27;63.87;100316.57;1772219;81;21244;-59
2022/04/23 14:14:25;;;;;;;7.00;6.20;;;;;;;13.29;64.30;100299.37;1772203;80;21629;-58
2022/04/23 14:17:33;;;;;;;10.13;5.97;;;;;;;13.31;64.77;100293.16;1741186;81;21212;-59
2022/04/23 14:20:42;;;;;;;8.28;6.00;;;;;;;13.40;65.20;100258.11;1740763;82;21192;-58
2022/04/23 14:23:49;;;;;;;7.08;5.58;;;;;;;13.47;65.49;100254.41;1739668;81;21354;-60
2022/04/23 14:26:56;;;;;;;6.85;5.80;;;;;;;13.45;65.46;100273.51;1722377;82;21272;-60
2022/04/23 14:30:02;;;;;;;10.85;6.60;;;;;;;13.45;65.81;100287.25;1741827;82;21382;-59
2022/04/23 14:33:12;;;;;;;9.68;7.08;;;;;;;13.40;66.12;100282.86;1741461;81;21225;-58
2022/04/23 14:36:20;;;;;;;10.38;7.28;;;;;;;13.28;66.13;100285.82;1742571;82;21443;-59
2022/04/23 14:39:26;;;;;;;10.82;7.75;;;;;;;13.22;66.43;100295.69;1763726;81;21219;-60
2022/04/23 14:42:33;;;;;;;10.05;7.12;;;;;;;13.13;66.74;100302.36;1767318;80;21209;-59
2022/04/23 14:45:41;;;;;;;11.90;7.85;;;;;;;13.04;67.20;100318.64;1769125;81;21258;-59
2022/04/23 14:48:51;;;;;;;11.35;9.38;;;;;;;12.95;67.70;100314.28;1742110;81;21387;-58
2022/04/23 14:55:23;;;;;;;12.05;8.95;;;;;;;12.79;68.94;100302.64;1769460;81;21313;-58
2022/04/23 14:58:30;;;;;;;13.38;9.08;;;;;;;12.70;69.48;100300.52;1761423;81;21191;-59
2022/04/23 15:01:39;;;;;;;10.13;7.62;;;;;;;12.67;70.11;100311.89;1737168;82;21209;-59
2022/04/23 15:04:47;;;;;;;14.95;9.10;;;;;;;12.64;70.54;100305.92;1737929;82;21209;-58
2022/04/23 15:07:53;;;;;;;11.97;8.15;;;;;;;12.57;70.72;100325.08;1737313;82;21249;-58
2022/04/23 15:11:00;;;;;;;9.98;7.60;;;;;;;12.48;70.71;100331.69;1738409;82;21201;-59